Lulu Pass Weather Station

This weather station provides temperature, relative humidity (RH), wind speed, gust or max wind speed, and wind direction at 10014ft near Lulu Pass at the head of Fisher Creek. This data can be used with temperature and precipitation data from the Fisher Creek SNOTEL site.

This weather station was purchased by the Friends of the Avalanche Center.

If the data has not been updated recently you can view it directly on datagarrison.com

Elevation
10014ft
Jump to table bottom
Date Time Temperature
deg F
RH, % Wind Speed Wind Gust Wind Direction
10/20/19 05:00 15.6 95 19 24 NW - 320
10/20/19 04:00 16.0 95 19 23 NW - 319
10/20/19 03:00 16.3 95 22 28 NW - 320
10/20/19 02:00 16.5 95 18 25 NW - 316
10/20/19 01:00 16.7 95 17 21 NW - 320
10/20/19 00:00 16.6 95 21 28 NW - 333
10/19/19 23:00 16.5 95 24 34 N - 341
10/19/19 22:00 19.0 96 6 10 N - 355
10/19/19 21:00 18.9 96 6 10 W - 281
10/19/19 20:00 19.9 96 3 7 N - 350
10/19/19 19:00 19.8 96 6 16 W - 251
10/19/19 18:00 20.3 95 14 30 SW - 229
10/19/19 17:00 21.0 95 12 24 S - 183
10/19/19 16:00 20.7 94 16 30 S - 175
10/19/19 15:00 20.8 90 13 27 S - 181
10/19/19 14:00 20.6 86 15 29 SW - 204
10/19/19 13:00 19.8 84 16 32 SW - 212
10/19/19 12:00 19.0 85 14 31 SW - 209
10/19/19 11:00 17.7 90 12 29 SW - 222
10/19/19 10:00 16.1 92 17 36 SW - 209
10/19/19 09:00 14.6 93 11 29 SW - 216
10/19/19 08:00 14.8 94 9 27 SW - 226
10/19/19 07:00 14.4 94 9 23 SW - 227
10/19/19 06:00 14.8 93 9 24 SW - 234
10/19/19 05:00 15.1 89 9 24 SW - 237
10/19/19 04:00 15.3 90 9 20 SW - 232
10/19/19 03:00 16.5 91 9 21 SW - 226
10/19/19 02:00 16.8 90 10 22 SW - 230
10/19/19 01:00 16.6 83 11 25 W - 271
10/19/19 00:00 17.4 82 13 32 W - 274
10/18/19 23:00 17.7 82 15 35 W - 278
10/18/19 22:00 18.0 85 18 35 NW - 299
10/18/19 21:00 18.8 85 19 40 NW - 298
10/18/19 20:00 18.9 91 16 34 NW - 300
10/18/19 19:00 19.1 94 19 32 NW - 307
10/18/19 18:00 18.9 93 19 37 NW - 300
10/18/19 17:00 19.8 94 16 43 W - 289
10/18/19 16:00 19.8 91 12 31 SW - 241
10/18/19 15:00 20.4 82 14 28 SW - 232
10/18/19 14:00 20.8 82 16 34 SW - 227
10/18/19 13:00 20.8 79 14 31 SW - 227
10/18/19 12:00 20.1 85 12 28 SW - 240
10/18/19 11:00 18.8 85 11 24 SW - 240
10/18/19 10:00 18.3 87 11 24 SW - 247
10/18/19 09:00 17.6 93 10 27 W - 260
10/18/19 08:00 17.4 90 8 22 W - 256
10/18/19 07:00 17.3 87 12 25 W - 277
10/18/19 06:00 18.7 90 17 33 NW - 305
10/18/19 05:00 20.3 95 14 29 W - 289
10/18/19 04:00 21.5 93 11 22 W - 279